Latest Coastal Weather Observations for Cape Ferguson

IDQ60701

Issued at 2:21 pm EST Tuesday 26 May 2020 (issued every 10 minutes, with the page automatically refreshed every 10 minutes)

About coastal observations | Map of coastal stations | Coastal observations for QLD | Marine services | Other Formats
Station Details ID: 032182 Name: CAPE FERGUSON NTC AWS Lat: -19.28 Lon: 147.06 Height: 0.0 m
Data from the previous 72 hours. | See also: Recent months for locations in Queensland
Date/Time
EST
Wind Sea
Height
m
Swell Vis
km
Cloud Weather Temp
°C
Press
hPa
Rain since
9am
mm
Dir  Spd
kts
Gust
kts
Height
m
Period
s
Dir
26/02:00pm ENE 6 8 - - - - - - - 20.8 1017.9 -
26/01:30pm E 7 9 - - - - - - - 20.6 1018.2 -
26/01:00pm E 7 8 - - - - - - - 20.5 1018.5 -
26/12:30pm ESE 6 9 - - - - - - - 20.5 1018.9 -
26/12:00pm ESE 6 8 - - - - - - - 20.4 1019.4 -
26/11:30am SE 7 9 - - - - - - - 20.2 1020.0 -
26/11:00am SE 8 10 - - - - - - - 20.0 1020.3 -
26/10:30am SSE 7 9 - - - - - - - 19.9 1020.4 -
26/10:00am S 3 4 - - - - - - - 18.9 1020.5 -
26/09:30am SSW 2 4 - - - - - - - 18.4 1020.5 -
26/09:00am WSW 1 4 - - - - - - - 18.5 1020.3 -
26/08:30am WNW 3 4 - - - - - - - 16.5 1020.0 -
26/08:00am WNW 2 3 - - - - - - - 16.1 1019.6 -
26/07:30am WNW 2 3 - - - - - - - 14.1 1019.5 -
26/07:00am WNW 3 3 - - - - - - - 13.3 1019.2 -
26/06:30am WNW 2 3 - - - - - - - 13.9 1018.9 -
26/06:00am WNW 3 4 - - - - - - - 13.5 1018.7 -
26/05:30am WNW 3 3 - - - - - - - 14.3 1018.5 -
26/05:00am WNW 2 3 - - - - - - - 14.0 1018.2 -
26/04:30am WNW 2 3 - - - - - - - 14.5 1018.0 -
26/04:00am WNW 3 4 - - - - - - - 14.0 1017.9 -
26/03:30am WNW 2 4 - - - - - - - 14.6 1017.8 -
26/03:00am WNW 3 4 - - - - - - - 14.2 1018.0 -
26/02:30am WNW 2 3 - - - - - - - 14.8 1018.1 -
26/02:00am WNW 3 4 - - - - - - - 14.6 1018.1 -
26/01:30am W 3 4 - - - - - - - 15.2 1018.3 -
26/01:00am WNW 3 4 - - - - - - - 14.9 1018.4 -
26/12:30am W 3 4 - - - - - - - 15.8 1018.5 -
26/12:00am WNW 3 4 - - - - - - - 15.9 1018.7 -
 
Date/Time
EST
Wind Sea
Height
m
Swell Vis
km
Cloud Weather Temp
°C
Press
hPa
Rain since
9am
mm
Dir  Spd
kts
Gust
kts
Height
m
Period
s
Dir
25/11:30pm WNW 3 4 - - - - - - - 16.1 1018.9 -
25/11:00pm WNW 3 4 - - - - - - - 16.2 1018.9 -
25/10:30pm WNW 3 3 - - - - - - - 16.4 1018.9 -
25/10:00pm WNW 3 4 - - - - - - - 16.1 1019.0 -
25/09:30pm WNW 3 5 - - - - - - - 16.5 1019.1 -
25/09:00pm WNW 3 4 - - - - - - - 17.3 1019.1 -
25/08:30pm NW 2 3 - - - - - - - 18.2 1018.9 -
25/08:00pm WNW 2 3 - - - - - - - 17.3 1018.4 -
25/07:30pm NW 2 2 - - - - - - - 18.0 1018.0 -
25/07:00pm NNW 3 4 - - - - - - - 19.2 1017.5 -
25/06:30pm N 1 3 - - - - - - - 19.4 1017.1 -
25/06:00pm N 2 4 - - - - - - - 19.4 1016.6 -
25/05:30pm N 3 5 - - - - - - - 19.1 1016.5 -
25/05:00pm NE 4 7 - - - - - - - 20.4 1016.2 -
25/04:30pm NE 3 5 - - - - - - - 20.6 1016.0 -
25/04:00pm NE 4 7 - - - - - - - 20.6 1015.8 -
25/03:30pm NE 2 4 - - - - - - - 20.7 1015.9 -
25/03:00pm NE 4 7 - - - - - - - 20.5 1015.9 -
25/02:30pm ENE 5 6 - - - - - - - 20.2 1016.4 -
25/02:00pm E 5 7 - - - - - - - 20.1 1016.6 -
25/01:30pm E 5 7 - - - - - - - 20.1 1017.0 -
25/01:00pm ESE 7 9 - - - - - - - 19.8 1017.7 -
25/12:30pm SE 6 10 - - - - - - - 19.7 1018.1 -
25/12:00pm SE 7 10 - - - - - - - 19.4 1018.4 -
25/11:30am SSE 8 11 - - - - - - - 19.2 1018.6 -
25/11:00am SSE 10 15 - - - - - - - 19.1 1018.8 -
25/10:30am S 5 12 - - - - - - - 18.9 1019.1 -
25/10:00am SSE 5 7 - - - - - - - 18.3 1019.3 -
25/09:30am SSW 3 6 - - - - - - - 18.4 1019.1 -
25/09:00am WSW 6 7 - - - - - - - 18.1 1018.8 -
25/08:30am WNW 1 3 - - - - - - - 16.9 1018.7 -
25/08:00am WNW 3 4 - - - - - - - 14.7 1018.3 -
25/07:30am NW 3 4 - - - - - - - 14.6 1018.2 -
25/07:00am WNW 3 4 - - - - - - - 13.5 1018.2 -
25/06:30am WNW 4 6 - - - - - - - 12.7 1017.9 -
25/06:00am WNW 2 4 - - - - - - - 13.5 1017.4 -
25/05:30am WNW 5 7 - - - - - - - 13.5 1016.9 -
25/05:00am WNW 4 6 - - - - - - - 14.4 1016.8 -
25/04:30am WSW 6 7 - - - - - - - 13.4 1016.8 -
25/04:00am WNW 1 3 - - - - - - - 16.1 1016.7 -
25/03:30am NW 2 3 - - - - - - - 17.0 1016.8 -
25/03:00am WNW 3 4 - - - - - - - 13.5 1016.9 -
25/02:30am WNW 2 4 - - - - - - - 13.6 1017.1 -
25/02:00am W 4 7 - - - - - - - 13.9 1017.0 -
25/01:30am NW 2 6 - - - - - - - 14.4 1017.0 -
25/01:00am WNW 2 5 - - - - - - - 15.0 1017.0 -
25/12:30am WNW 3 5 - - - - - - - 15.7 1016.9 -
25/12:00am CALM 0 2 - - - - - - - 18.1 1017.1 -
 
Date/Time
EST
Wind Sea
Height
m
Swell Vis
km
Cloud Weather Temp
°C
Press
hPa
Rain since
9am
mm
Dir  Spd
kts
Gust
kts
Height
m
Period
s
Dir
24/11:30pm WNW 1 3 - - - - - - - 16.7 1017.4 -
24/11:00pm NW 1 3 - - - - - - - 16.1 1017.5 -
24/10:30pm NW 2 5 - - - - - - - 15.9 1017.5 -
24/10:00pm WNW 3 5 - - - - - - - 15.4 1017.7 -
24/09:30pm NW 1 3 - - - - - - - 16.7 1017.5 -
24/09:00pm SW 5 8 - - - - - - - 17.8 1017.4 -
24/08:30pm WNW 3 6 - - - - - - - 18.5 1017.1 -
24/08:00pm WNW 5 9 - - - - - - - 17.8 1017.1 -
24/07:30pm WSW 7 12 - - - - - - - 18.3 1016.7 -
24/07:00pm W 3 6 - - - - - - - 17.9 1016.3 -
24/06:30pm WSW 8 10 - - - - - - - 18.5 1015.9 -
24/06:00pm SW 6 8 - - - - - - - 18.6 1015.5 -
24/05:30pm SW 10 13 - - - - - - - 19.6 1015.2 -
24/05:00pm SW 11 15 - - - - - - - 20.0 1014.9 -
24/04:30pm SW 13 15 - - - - - - - 20.3 1014.4 -
24/04:00pm SW 12 14 - - - - - - - 20.3 1014.0 -
24/03:30pm SW 12 16 - - - - - - - 20.2 1013.8 -
24/03:00pm SW 15 19 - - - - - - - 20.0 1013.8 -
24/02:30pm SW 14 19 - - - - - - - 19.8 1013.9 -
24/02:00pm SW 10 15 - - - - - - - 19.6 1014.4 -
24/01:30pm SW 5 11 - - - - - - - 19.3 1015.0 -
24/01:00pm SW 3 6 - - - - - - - 18.6 1015.3 -
24/12:30pm S 6 10 - - - - - - - 18.2 1015.9 -
24/12:00pm SSE 11 14 - - - - - - - 17.6 1016.6 -
24/11:30am SSE 12 15 - - - - - - - 17.2 1016.9 -
24/11:00am S 13 16 - - - - - - - 17.0 1017.5 -
24/10:30am S 14 16 - - - - - - - 17.0 1017.8 -
24/10:00am S 14 17 - - - - - - - 16.8 1018.2 -
24/09:30am SSE 7 11 - - - - - - - 16.9 1018.3 -
24/09:00am SE 5 7 - - - - - - - 16.8 1018.0 -
24/08:30am SE 1 3 - - - - - - - 16.5 1017.5 -
24/08:00am NW 2 4 - - - - - - - 15.5 1017.3 -
24/07:30am NW 3 4 - - - - - - - 14.9 1017.0 -
24/07:00am WNW 5 7 - - - - - - - 14.9 1016.7 -
24/06:30am WNW 3 4 - - - - - - - 14.4 1016.5 -
24/06:00am WNW 3 6 - - - - - - - 15.1 1015.9 -
24/05:30am NW 4 6 - - - - - - - 14.4 1014.9 -
24/05:00am NW 4 5 - - - - - - - 15.4 1014.9 -
24/04:30am WSW 6 9 - - - - - - - 15.2 1014.3 -
24/04:00am WNW 5 8 - - - - - - - 14.6 1014.5 -
24/03:30am WSW 9 11 - - - - - - - 14.9 1014.3 -
24/03:00am WSW 10 13 - - - - - - - 14.9 1014.4 -
24/02:30am W 10 13 - - - - - - - 15.0 1015.4 -
24/02:00am W 8 12 - - - - - - - 15.2 1015.7 -
24/01:30am WSW 8 11 - - - - - - - 15.0 1015.7 -
24/01:00am W 10 14 - - - - - - - 15.1 1016.7 -
24/12:30am W 8 13 - - - - - - - 14.7 1015.0 -
24/12:00am W 8 13 - - - - - - - 14.3 1016.4 -
 
Date/Time
EST
Wind Sea
Height
m
Swell Vis
km
Cloud Weather Temp
°C
Press
hPa
Rain since
9am
mm
Dir  Spd
kts
Gust
kts
Height
m
Period
s
Dir
23/11:30pm WNW 5 9 - - - - - - - 14.1 1016.4 -
23/11:00pm W 7 10 - - - - - - - 14.0 1015.6 -
23/10:30pm W 10 14 - - - - - - - 14.1 1016.9 -
23/10:00pm WSW 8 11 - - - - - - - 13.6 1016.9 -
23/09:30pm WSW 13 18 - - - - - - - 13.6 1017.1 -
23/09:00pm W 13 20 - - - - - - - 13.6 1016.7 -
23/08:30pm W 12 17 - - - - - - - 13.5 1015.9 -
23/08:00pm WSW 9 15 - - - - - - - 14.3 1016.3 -
23/07:30pm W 7 9 - - - - - - - 14.0 1015.5 -
23/07:00pm WNW 9 13 - - - - - - - 13.8 1014.8 -
23/06:30pm W 8 15 - - - - - - - 13.3 1015.3 -
23/06:00pm W 10 12 - - - - - - - 13.4 1015.4 -
23/05:30pm WSW 9 13 - - - - - - - 13.3 1015.0 -
23/05:00pm S 4 8 - - - - - - - 13.3 1013.7 -
23/04:30pm S 8 11 - - - - - - - 13.7 1014.3 -
23/04:00pm WSW 7 9 - - - - - - - 13.4 1014.8 -
23/03:30pm WSW 9 11 - - - - - - - 13.3 1014.1 -
23/03:00pm WSW 7 9 - - - - - - - 13.4 1013.7 -
23/02:30pm WSW 9 12 - - - - - - - 13.6 1014.4 -

Other formats

Comma delimited format used in spreadsheet applications
http://www.bom.gov.au/fwo/IDQ60701/IDQ60701.94297.axf

JavaScript Object Notation format (JSON) in row-major order
http://www.bom.gov.au/fwo/IDQ60701/IDQ60701.94297.json

Data quality

Most of these data are generated automatically and are frequently updated. Quality checks on data are not normally performed. It is possible for incorrect values to appear. Refer to information at About Latest Weather Observations and please check the disclaimer before using these data.